Time;durP1;ratioP1;P1;durP2;ratioP2;P2;SDS_P1;SDS_P2;PMS_P1;PMS_P2;Temp;Humidity;BMP_temperature;BMP_pressure;BME280_temperature;BME280_humidity;BME280_pressure;Samples;Min_cycle;Max_cycle;Signal;HPM_P1;HPM_P2
2022/12/15 00:38:43;;;;;;;19.33;8.35;;;;;;;10.27;93.53;100219.28;5050997;28;20141;-76
2022/12/15 00:41:10;;;;;;;20.85;8.35;;;;;;;10.22;93.72;100216.13;5050587;28;20032;-76
2022/12/15 00:43:36;;;;;;;38.67;10.38;;;;;;;9.96;94.82;100180.75;5050952;28;20106;-76
2022/12/15 00:48:47;;;;;;;18.23;8.13;;;;;;;10.03;96.03;100187.28;5050343;28;20064;-74
2022/12/15 00:51:13;;;;;;;27.88;8.38;;;;;;;10.23;96.47;100190.97;5050353;28;20025;-76
2022/12/15 01:21:09;;;;;;;20.02;6.57;;;;;;;10.72;93.39;100093.38;5050144;28;20068;-76
2022/12/15 01:23:36;;;;;;;25.20;6.28;;;;;;;10.81;93.50;100117.59;5050053;28;20036;-74
2022/12/15 01:26:02;;;;;;;23.70;6.10;;;;;;;10.68;93.04;100094.63;5051158;28;20025;-76
2022/12/15 01:28:28;;;;;;;23.63;8.48;;;;;;;10.82;92.88;100130.03;5051519;28;20025;-76
2022/12/15 01:30:54;;;;;;;18.73;5.57;;;;;;;10.82;92.88;100124.66;5054233;28;20025;-77
2022/12/15 01:33:20;;;;;;;22.17;6.72;;;;;;;10.61;93.26;100098.88;5055937;28;20101;-76
2022/12/15 01:36:00;;;;;;;31.27;5.88;;;;;;;10.82;93.89;100119.28;5050518;28;20538;-76
2022/12/15 01:38:27;;;;;;;26.27;6.47;;;;;;;10.84;94.28;100100.31;5049847;28;20392;-76
2022/12/15 01:41:00;;;;;;;22.98;5.63;;;;;;;10.93;94.27;100105.72;5049765;28;20458;-75
2022/12/15 01:43:32;;;;;;;18.00;5.15;;;;;;;10.68;93.79;100068.59;5049994;28;20021;-76
2022/12/15 01:46:06;;;;;;;18.40;5.60;;;;;;;10.93;94.74;100107.56;5049573;28;20029;-75
2022/12/15 01:48:52;;;;;;;24.35;5.43;;;;;;;10.95;94.49;100096.69;5049172;28;20419;-77
2022/12/15 01:51:31;;;;;;;22.13;5.25;;;;;;;10.90;94.99;100089.88;5049679;28;20029;-76
2022/12/15 01:53:59;;;;;;;21.02;6.68;;;;;;;10.92;95.22;100090.56;5048033;28;20031;-75
2022/12/15 01:56:26;;;;;;;18.25;5.72;;;;;;;10.72;95.59;100059.25;5049500;28;20036;-76
2022/12/15 01:58:55;;;;;;;18.77;5.47;;;;;;;10.65;96.06;100047.34;5049772;28;20083;-75
2022/12/15 02:01:21;;;;;;;22.52;5.18;;;;;;;10.83;95.51;100088.72;5049763;28;20029;-76
2022/12/15 02:03:47;;;;;;;28.80;5.28;;;;;;;10.75;95.38;100075.13;5049769;28;20105;-76
2022/12/15 02:06:13;;;;;;;30.48;5.85;;;;;;;10.79;95.91;100065.75;5049803;28;20036;-77
2022/12/15 02:08:41;;;;;;;33.03;6.43;;;;;;;10.84;96.00;100074.28;5049403;28;20113;-76
2022/12/15 02:11:24;;;;;;;20.30;5.05;;;;;;;10.85;96.13;100073.31;5049319;28;20420;-75
2022/12/15 02:14:03;;;;;;;25.33;5.03;;;;;;;10.88;96.71;100070.34;5049293;28;20404;-76
2022/12/15 02:16:53;;;;;;;31.90;5.78;;;;;;;10.80;97.48;100067.47;5049439;28;20474;-75
2022/12/15 02:19:37;;;;;;;35.17;6.35;;;;;;;10.80;97.61;100064.78;5049773;28;20045;-75
2022/12/15 02:22:20;;;;;;;36.53;6.55;;;;;;;10.74;99.02;100057.28;5048808;28;20404;-76
2022/12/15 02:25:27;;;;;;;28.33;6.03;;;;;;;10.69;100.00;100059.53;5049698;28;20087;-77
2022/12/15 02:28:07;;;;;;;31.13;8.07;;;;;;;10.62;100.00;100069.16;5007384;28;20076;-78
2022/12/15 02:31:48;;;;;;;27.42;5.97;;;;;;;10.56;100.00;100076.91;4990636;28;20042;-75
2022/12/15 02:33:48;;;;;;;33.53;8.45;;;;;;;10.44;100.00;100054.69;5007568;28;20052;-76
2022/12/15 02:36:40;;;;;;;41.05;9.07;;;;;;;10.51;100.00;100061.22;5009104;28;20030;-77
2022/12/15 02:39:05;;;;;;;26.10;6.68;;;;;;;10.51;100.00;100053.16;4930271;29;20054;-77
2022/12/15 02:41:38;;;;;;;33.60;6.63;;;;;;;10.51;100.00;100055.84;4932191;29;20454;-77
2022/12/15 02:44:28;;;;;;;27.95;7.93;;;;;;;10.44;100.00;100041.22;4933235;29;20472;-77
2022/12/15 02:47:01;;;;;;;39.45;7.82;;;;;;;10.57;100.00;100055.28;4931498;29;20131;-76
2022/12/15 02:49:41;;;;;;;32.03;7.22;;;;;;;10.43;100.00;100020.72;4932439;29;20047;-76
2022/12/15 02:52:20;;;;;;;53.97;9.00;;;;;;;10.64;100.00;100061.78;4930333;29;20095;-77
2022/12/15 02:55:16;;;;;;;37.80;7.40;;;;;;;10.57;100.00;100052.59;4930092;29;20044;-76
2022/12/15 02:58:14;;;;;;;29.70;7.88;;;;;;;10.64;100.00;100059.09;4933134;29;20036;-76
2022/12/15 03:00:44;;;;;;;40.75;7.75;;;;;;;10.71;100.00;100060.25;4933030;29;20048;-75
2022/12/15 03:03:12;;;;;;;26.23;8.38;;;;;;;10.53;100.00;100010.84;4947323;28;20045;-76
2022/12/15 03:05:38;;;;;;;22.35;8.57;;;;;;;10.70;100.00;100044.25;4971730;28;20531;-75
2022/12/15 03:08:03;;;;;;;23.45;8.02;;;;;;;10.71;100.00;100052.19;4972084;28;20033;-77
2022/12/15 03:10:29;;;;;;;31.13;9.45;;;;;;;10.90;100.00;100060.28;4991620;28;20053;-78
2022/12/15 03:12:54;;;;;;;34.83;10.35;;;;;;;10.96;100.00;100058.84;4997001;28;20042;-78
2022/12/15 03:15:20;;;;;;;25.35;10.05;;;;;;;10.98;100.00;100047.97;5019346;28;20169;-78
2022/12/15 03:17:46;;;;;;;20.67;8.88;;;;;;;11.02;100.00;100042.13;5073556;28;20033;-75
2022/12/15 03:20:11;;;;;;;28.25;10.00;;;;;;;10.98;100.00;100042.59;5052531;28;20029;-75
2022/12/15 03:22:37;;;;;;;24.98;10.35;;;;;;;11.08;100.00;100038.03;5052669;28;20495;-76
2022/12/15 03:25:03;;;;;;;23.50;9.10;;;;;;;10.85;100.00;100006.06;5052857;28;20166;-76
2022/12/15 03:27:29;;;;;;;36.85;11.63;;;;;;;10.89;100.00;100009.28;5052854;28;20110;-76
2022/12/15 03:29:54;;;;;;;28.10;11.63;;;;;;;10.81;100.00;100020.78;5051934;28;20396;-76
2022/12/15 03:32:20;;;;;;;19.55;11.45;;;;;;;10.70;100.00;99991.28;5051664;28;20028;-75
2022/12/15 03:34:45;;;;;;;29.30;11.05;;;;;;;10.63;100.00;99967.81;5052528;28;20714;-76
2022/12/15 03:37:11;;;;;;;29.08;12.85;;;;;;;10.67;100.00;99986.19;5052888;28;20403;-76
2022/12/15 03:39:36;;;;;;;31.98;13.18;;;;;;;10.76;100.00;100016.81;5053318;28;20029;-76
2022/12/15 03:42:01;;;;;;;27.33;12.45;;;;;;;10.75;100.00;100004.34;5055998;28;20025;-75
2022/12/15 03:44:27;;;;;;;24.77;13.60;;;;;;;10.70;100.00;100017.38;5054034;28;20029;-76
2022/12/15 03:46:52;;;;;;;30.98;15.93;;;;;;;10.75;100.00;100015.94;5051932;28;20025;-76
2022/12/15 03:49:18;;;;;;;37.70;16.63;;;;;;;10.80;100.00;100016.38;5051488;28;20424;-76
2022/12/15 03:51:43;;;;;;;42.53;17.13;;;;;;;10.74;100.00;100016.94;5051637;28;20021;-75
2022/12/15 03:54:13;;;;;;;28.58;15.52;;;;;;;10.51;100.00;99967.13;5051442;28;20458;-77
2022/12/15 03:56:39;;;;;;;30.02;17.67;;;;;;;10.64;100.00;99989.16;5050319;28;20079;-76
2022/12/15 03:59:05;;;;;;;28.45;16.25;;;;;;;10.77;100.00;100008.59;5050322;28;20469;-76
2022/12/15 04:01:32;;;;;;;33.38;17.27;;;;;;;10.70;100.00;100007.44;5051140;28;20503;-77
2022/12/15 04:03:59;;;;;;;38.90;18.27;;;;;;;10.77;100.00;100003.19;5049004;28;20044;-77
2022/12/15 04:06:24;;;;;;;31.63;16.55;;;;;;;10.71;100.00;100003.75;5051019;28;20021;-76
2022/12/15 04:08:50;;;;;;;39.28;17.45;;;;;;;10.61;100.00;99996.69;5050982;28;20400;-75
2022/12/15 04:11:16;;;;;;;34.97;18.25;;;;;;;10.60;100.00;100003.91;5051268;28;20111;-76
2022/12/15 04:13:42;;;;;;;43.33;19.95;;;;;;;10.61;100.00;100000.22;5051792;28;20177;-76
2022/12/15 04:16:07;;;;;;;37.75;18.35;;;;;;;10.68;100.00;100001.34;5051396;28;20250;-76
2022/12/15 04:18:33;;;;;;;41.83;20.20;;;;;;;10.66;100.00;99997.13;5051222;28;20048;-75
2022/12/15 04:20:58;;;;;;;27.55;17.33;;;;;;;10.69;100.00;100004.91;5051684;28;20165;-76
2022/12/15 04:23:24;;;;;;;40.38;20.15;;;;;;;10.74;100.00;100003.47;5053786;28;20408;-75
2022/12/15 05:31:50;;;;;;;32.65;20.25;;;;;;;10.70;97.51;99994.00;5029652;28;20109;-77
2022/12/15 05:34:16;;;;;;;32.95;20.90;;;;;;;10.72;97.68;99993.88;5029450;28;20060;-77
2022/12/15 05:36:42;;;;;;;30.90;20.15;;;;;;;10.65;97.72;99990.88;5028666;28;20196;-78
2022/12/15 05:39:07;;;;;;;33.88;21.83;;;;;;;10.78;97.70;100007.59;5029860;28;20483;-78
2022/12/15 05:41:33;;;;;;;37.42;20.58;;;;;;;10.84;97.13;100008.88;5030650;28;20026;-78
2022/12/15 05:43:58;;;;;;;32.40;18.90;;;;;;;10.67;96.96;99980.81;5033521;28;20028;-78
2022/12/15 05:46:24;;;;;;;35.55;20.55;;;;;;;10.92;96.12;99998.25;5049906;28;20028;-74
2022/12/15 05:48:49;;;;;;;42.30;19.13;;;;;;;10.91;95.72;100027.00;5049221;28;20122;-77
2022/12/15 05:51:14;;;;;;;27.58;17.10;;;;;;;10.72;95.23;99983.97;5050605;28;20029;-76
2022/12/15 05:53:41;;;;;;;38.05;19.23;;;;;;;10.93;95.18;100014.25;5052916;28;20495;-77
2022/12/15 05:56:11;;;;;;;28.98;18.40;;;;;;;10.99;95.20;100017.34;5051087;28;20465;-76
2022/12/15 05:58:38;;;;;;;37.05;18.77;;;;;;;10.94;95.08;100012.41;5049834;28;20041;-75
2022/12/15 06:01:10;;;;;;;35.42;20.08;;;;;;;11.06;94.50;100024.72;5046624;28;20040;-73
2022/12/15 06:03:36;;;;;;;29.20;20.00;;;;;;;10.90;94.40;99990.31;5049431;28;20036;-76
2022/12/15 06:06:03;;;;;;;39.28;20.45;;;;;;;10.96;94.43;99993.44;5049159;28;20024;-79
2022/12/15 06:08:32;;;;;;;40.03;21.65;;;;;;;11.02;94.21;100006.31;5048752;28;20440;-77
2022/12/15 06:10:57;;;;;;;41.50;20.58;;;;;;;11.13;94.24;100025.84;5048604;28;20041;-75
2022/12/15 06:13:24;;;;;;;35.05;22.60;;;;;;;11.15;93.83;100017.63;5049135;28;20468;-76
2022/12/15 06:16:17;;;;;;;31.30;21.27;;;;;;;11.32;93.38;100041.13;5048986;28;20060;-78
2022/12/15 06:18:45;;;;;;;36.13;20.55;;;;;;;11.34;92.90;100033.78;5026340;28;20049;-77
2022/12/15 06:21:13;;;;;;;39.40;22.13;;;;;;;11.26;92.65;100014.78;5026376;28;20045;-76
2022/12/15 06:23:39;;;;;;;28.15;19.80;;;;;;;11.43;92.36;100049.06;5026739;28;20479;-75
2022/12/15 06:26:14;;;;;;;40.05;21.48;;;;;;;11.42;92.23;100058.13;5026709;28;20096;-79
2022/12/15 06:28:40;;;;;;;36.15;21.98;;;;;;;11.26;91.53;100037.16;5026807;28;20025;-77
2022/12/15 06:31:07;;;;;;;42.47;22.33;;;;;;;11.37;91.70;100044.25;5029661;28;20037;-77
2022/12/15 06:33:33;;;;;;;38.05;23.75;;;;;;;11.46;91.41;100065.78;5033067;28;20026;-76
2022/12/15 06:36:07;;;;;;;32.75;22.85;;;;;;;11.41;91.44;100061.78;5030577;28;20038;-75
2022/12/15 06:38:34;;;;;;;37.58;23.42;;;;;;;11.46;91.00;100068.47;4981073;28;20053;-75
2022/12/15 06:41:01;;;;;;;31.70;22.38;;;;;;;11.50;90.87;100077.09;5013444;28;20055;-76
2022/12/15 06:43:27;;;;;;;59.90;35.10;;;;;;;11.57;90.55;100080.06;5029739;28;20037;-76
2022/12/15 06:45:53;;;;;;;49.45;30.25;;;;;;;11.54;90.37;100072.25;5029628;28;20072;-75
2022/12/15 06:48:19;;;;;;;43.67;29.20;;;;;;;11.61;90.33;100074.25;5029566;28;20420;-76
2022/12/15 06:50:45;;;;;;;42.28;26.33;;;;;;;11.73;89.77;100100.06;5029924;28;20026;-75
2022/12/15 06:53:16;;;;;;;33.17;24.08;;;;;;;11.70;89.83;100099.50;5029613;28;20104;-76
2022/12/15 06:55:42;;;;;;;36.13;25.27;;;;;;;11.70;88.95;100094.97;5044539;28;20334;-76
2022/12/15 06:58:07;;;;;;;43.67;24.02;;;;;;;11.56;89.29;100086.47;5055200;28;20025;-77
2022/12/15 07:00:35;;;;;;;44.58;26.30;;;;;;;11.68;88.93;100102.28;5053173;28;20028;-76
2022/12/15 07:03:02;;;;;;;37.53;24.52;;;;;;;11.69;88.61;100104.00;5052329;28;20071;-75
2022/12/15 07:05:27;;;;;;;43.00;27.08;;;;;;;11.76;88.05;100102.47;5052576;28;20059;-75
2022/12/15 07:07:53;;;;;;;69.65;41.90;;;;;;;11.81;88.72;100097.47;5051976;28;20060;-76
2022/12/15 07:10:18;;;;;;;57.35;31.42;;;;;;;11.87;88.86;100113.06;5051976;28;20515;-76
2022/12/15 07:12:44;;;;;;;45.67;26.27;;;;;;;11.94;88.78;100114.19;5051792;28;20025;-75
2022/12/15 07:15:10;;;;;;;46.55;28.42;;;;;;;11.89;88.52;100107.53;5051890;28;20025;-75
2022/12/15 07:17:36;;;;;;;44.95;28.83;;;;;;;11.91;88.08;100108.25;5051855;28;20404;-75
2022/12/15 07:20:03;;;;;;;44.85;28.20;;;;;;;11.76;88.12;100094.38;5052029;28;20036;-76
2022/12/15 07:22:28;;;;;;;45.85;29.30;;;;;;;11.88;88.38;100112.06;5051903;28;20029;-76
2022/12/15 07:24:54;;;;;;;43.17;28.27;;;;;;;11.90;87.84;100118.16;5051685;28;20089;-76
2022/12/15 07:27:19;;;;;;;40.00;26.20;;;;;;;11.85;87.48;100115.06;5052555;28;20044;-74
2022/12/15 07:29:45;;;;;;;44.53;26.27;;;;;;;11.97;87.50;100127.38;5051492;28;20033;-74
2022/12/15 07:32:12;;;;;;;44.75;26.30;;;;;;;11.79;87.36;100088.69;5051900;28;20495;-74
2022/12/15 07:34:38;;;;;;;44.97;26.85;;;;;;;12.03;86.92;100128.63;5051792;28;20483;-75
2022/12/15 07:37:03;;;;;;;38.80;27.45;;;;;;;12.11;86.99;100125.22;5051412;28;20032;-74
2022/12/15 07:39:29;;;;;;;52.17;32.17;;;;;;;12.15;87.43;100116.66;5051411;28;20175;-75
2022/12/15 07:41:55;;;;;;;50.03;30.42;;;;;;;12.18;87.31;100123.59;5051019;28;20530;-74
2022/12/15 07:44:20;;;;;;;44.65;30.30;;;;;;;12.14;87.05;100114.13;5051341;28;20035;-74
2022/12/15 07:46:47;;;;;;;42.70;28.15;;;;;;;12.13;86.79;100109.72;5051307;28;20104;-74
2022/12/15 07:49:16;;;;;;;47.42;31.15;;;;;;;12.16;86.67;100110.28;5051205;28;20104;-75
2022/12/15 07:51:42;;;;;;;45.67;29.10;;;;;;;12.27;86.79;100120.88;5051078;28;20029;-77
2022/12/15 07:54:10;;;;;;;49.17;31.98;;;;;;;12.10;86.24;100077.69;5051387;28;20029;-75
2022/12/15 07:56:36;;;;;;;39.53;27.95;;;;;;;12.28;85.70;100121.72;5050998;28;20060;-75
2022/12/15 07:59:02;;;;;;;45.90;28.95;;;;;;;12.32;85.84;100113.19;5051886;28;20090;-74
2022/12/15 08:01:28;;;;;;;43.47;27.80;;;;;;;12.36;85.42;100119.13;5067682;28;20130;-75
2022/12/15 08:03:53;;;;;;;41.63;27.40;;;;;;;12.25;84.10;100127.41;5053191;28;20041;-75
2022/12/15 08:06:19;;;;;;;45.53;28.55;;;;;;;12.19;84.45;100109.13;5051383;28;20492;-75
2022/12/15 08:08:44;;;;;;;46.13;29.20;;;;;;;12.22;84.56;100127.72;5051177;28;20029;-74
2022/12/15 08:11:13;;;;;;;46.55;27.63;;;;;;;12.21;84.27;100120.63;5049742;28;20518;-74
2022/12/15 08:13:39;;;;;;;48.42;29.60;;;;;;;11.99;84.32;100090.34;5050449;28;20419;-75
2022/12/15 08:16:05;;;;;;;48.08;30.50;;;;;;;12.10;84.84;100101.94;5051055;28;20029;-74
2022/12/15 08:18:30;;;;;;;49.63;30.95;;;;;;;12.20;84.87;100102.75;5050890;28;20352;-76
2022/12/15 08:21:02;;;;;;;45.42;29.55;;;;;;;12.29;85.06;100123.44;5050521;28;20480;-75
2022/12/15 08:23:27;;;;;;;38.22;25.88;;;;;;;12.11;84.60;100109.03;5050661;28;20040;-76
2022/12/15 08:25:53;;;;;;;45.20;28.92;;;;;;;12.08;84.66;100098.56;5050701;28;20029;-74
2022/12/15 08:28:18;;;;;;;43.75;28.92;;;;;;;12.30;84.88;100141.31;5049210;28;20430;-74
2022/12/15 08:30:44;;;;;;;49.25;30.30;;;;;;;12.35;85.16;100139.03;5050025;28;20021;-76
2022/12/15 08:33:09;;;;;;;52.70;29.42;;;;;;;12.30;85.02;100125.13;5051134;28;20594;-74
2022/12/15 08:35:39;;;;;;;44.75;28.42;;;;;;;12.39;84.93;100140.41;5049216;28;20476;-74
2022/12/15 08:38:04;;;;;;;46.80;27.83;;;;;;;12.19;85.08;100107.31;5049997;28;20040;-74
2022/12/15 08:40:30;;;;;;;42.15;28.63;;;;;;;12.19;83.84;100128.88;5049771;28;20025;-73
2022/12/15 08:42:55;;;;;;;57.03;31.58;;;;;;;12.21;84.23;100132.25;5050071;28;20063;-75
2022/12/15 08:45:21;;;;;;;51.47;31.17;;;;;;;12.30;84.76;100139.47;5050387;28;20104;-76
2022/12/15 08:47:46;;;;;;;47.42;31.65;;;;;;;12.18;84.99;100134.38;5050346;28;20029;-74
2022/12/15 08:50:11;;;;;;;50.05;31.77;;;;;;;12.26;84.99;100131.84;5052147;28;20021;-75
2022/12/15 08:52:40;;;;;;;67.88;35.72;;;;;;;12.32;84.85;100136.63;5051518;28;20074;-75
2022/12/15 08:55:10;;;;;;;49.25;32.15;;;;;;;12.31;84.50;100134.91;5066348;28;20025;-73
2022/12/15 08:57:35;;;;;;;60.80;34.03;;;;;;;12.46;84.63;100138.81;5067150;28;20029;-75
2022/12/15 09:00:03;;;;;;;51.17;33.05;;;;;;;12.59;85.18;100147.44;5065746;28;20108;-76
2022/12/15 09:02:28;;;;;;;52.97;31.63;;;;;;;12.72;84.34;100147.91;5050832;28;20483;-74
2022/12/15 09:04:54;;;;;;;54.53;31.55;;;;;;;12.80;83.96;100134.53;5052053;28;20025;-75
2022/12/15 09:07:19;;;;;;;36.35;26.35;;;;;;;12.88;82.99;100148.13;5052383;28;20033;-74
2022/12/15 09:09:45;;;;;;;45.45;29.25;;;;;;;12.89;82.56;100136.34;5049204;28;20071;-75
2022/12/15 09:12:11;;;;;;;41.80;24.98;;;;;;;12.94;81.99;100152.91;5049927;28;20116;-75
2022/12/15 09:14:37;;;;;;;45.05;28.08;;;;;;;12.93;81.04;100153.94;5047377;28;20037;-73
2022/12/15 09:17:02;;;;;;;35.00;23.20;;;;;;;12.96;80.83;100166.28;5048454;28;20036;-75
2022/12/15 09:19:28;;;;;;;42.00;16.98;;;;;;;12.72;80.65;100142.53;5049738;28;20028;-74
2022/12/15 09:21:53;;;;;;;26.80;17.00;;;;;;;12.77;79.77;100169.91;5049335;28;20051;-75
2022/12/15 09:24:20;;;;;;;24.38;15.75;;;;;;;12.73;80.01;100168.50;5049507;28;20101;-74
2022/12/15 09:26:45;;;;;;;23.05;14.30;;;;;;;12.59;79.13;100174.41;5049471;28;20116;-74
2022/12/15 09:29:14;;;;;;;13.65;10.45;;;;;;;12.56;78.54;100166.63;5049513;28;20029;-74
2022/12/15 09:31:43;;;;;;;15.35;10.40;;;;;;;12.52;78.86;100162.50;5049502;28;20040;-74
2022/12/15 09:34:13;;;;;;;15.77;10.27;;;;;;;12.43;77.96;100166.94;5049366;28;20432;-74
2022/12/15 09:36:39;;;;;;;13.18;9.50;;;;;;;12.29;77.93;100150.41;5049462;28;20033;-74
2022/12/15 09:39:05;;;;;;;13.77;8.90;;;;;;;12.22;77.80;100160.06;5049359;28;20021;-73
2022/12/15 09:41:35;;;;;;;11.90;8.35;;;;;;;12.23;78.56;100167.16;5049342;28;20122;-76
2022/12/15 09:44:18;;;;;;;11.48;8.82;;;;;;;12.14;78.37;100178.84;5049496;28;20045;-75
2022/12/15 09:47:07;;;;;;;13.55;9.05;;;;;;;12.16;78.10;100171.44;5049563;28;20023;-75
2022/12/15 09:49:52;;;;;;;15.90;10.02;;;;;;;12.09;78.22;100170.31;5049543;28;20063;-74
2022/12/15 09:52:27;;;;;;;13.50;9.48;;;;;;;11.90;79.01;100128.94;5048995;28;20485;-74
2022/12/15 09:54:54;;;;;;;19.90;8.85;;;;;;;11.83;78.32;100143.97;5048833;28;20040;-74
2022/12/15 09:57:46;;;;;;;14.80;9.85;;;;;;;12.02;77.89;100188.91;5049110;28;20044;-73
2022/12/15 10:00:20;;;;;;;;;;;;;;;11.97;77.13;100183.09;5049939;28;20029;-73
2022/12/15 10:02:58;;;;;;;11.90;9.05;;;;;;;11.96;77.37;100182.25;5049173;28;20026;-76
2022/12/15 10:05:35;;;;;;;15.65;9.90;;;;;;;12.03;77.80;100187.91;5050546;28;20032;-74
2022/12/15 10:08:01;;;;;;;10.55;8.18;;;;;;;11.94;76.57;100172.63;5054873;28;20568;-76
2022/12/15 10:10:33;;;;;;;16.25;8.35;;;;;;;11.89;75.52;100175.75;5053694;28;20025;-75
2022/12/15 10:13:06;;;;;;;10.10;8.15;;;;;;;11.70;75.63;100172.22;5054492;28;20159;-74
2022/12/15 10:15:46;;;;;;;15.40;9.52;;;;;;;11.69;75.74;100182.13;5053073;28;20482;-74
2022/12/15 10:18:31;;;;;;;10.85;8.30;;;;;;;11.67;76.31;100184.09;5052644;28;20025;-74
2022/12/15 10:21:00;;;;;;;13.75;8.52;;;;;;;11.62;75.21;100172.91;5052733;28;20025;-74
2022/12/15 10:23:26;;;;;;;14.52;9.35;;;;;;;11.51;75.47;100173.06;5052914;28;20021;-74
2022/12/15 10:26:14;;;;;;;17.55;9.75;;;;;;;11.42;75.34;100171.22;5055337;28;20027;-74
2022/12/15 10:28:51;;;;;;;18.52;9.18;;;;;;;11.45;76.00;100187.09;5053419;28;20029;-74
2022/12/15 10:31:33;;;;;;;19.40;10.48;;;;;;;11.35;76.07;100186.22;5053372;28;20021;-74
2022/12/15 10:34:14;;;;;;;17.17;10.55;;;;;;;11.29;76.29;100181.41;5053052;28;20400;-74
2022/12/15 10:36:49;;;;;;;14.40;8.95;;;;;;;11.08;75.99;100159.13;5052910;28;20032;-76
2022/12/15 10:39:15;;;;;;;25.95;10.25;;;;;;;11.13;76.55;100192.69;5051290;28;20037;-73
2022/12/15 10:41:42;;;;;;;15.35;10.88;;;;;;;11.27;77.73;100189.63;5052266;28;20025;-75
2022/12/15 10:44:23;;;;;;;29.25;11.75;;;;;;;11.08;77.13;100161.81;5052576;28;20515;-73
2022/12/15 10:46:54;;;;;;;21.57;11.40;;;;;;;11.37;77.62;100216.56;5052556;28;20021;-75
2022/12/15 10:49:22;;;;;;;31.23;12.13;;;;;;;11.38;76.51;100204.78;5052399;28;20114;-75
2022/12/15 10:52:01;;;;;;;26.42;12.18;;;;;;;11.48;74.96;100225.34;5052737;28;20021;-74
2022/12/15 10:54:34;;;;;;;26.38;12.43;;;;;;;11.43;74.11;100216.00;5052577;28;20196;-75
2022/12/15 10:57:15;;;;;;;39.30;12.65;;;;;;;11.55;74.71;100224.78;5052075;28;20035;-74
2022/12/15 10:59:41;;;;;;;26.77;13.60;;;;;;;11.66;74.35;100227.34;5052358;28;20047;-73
2022/12/15 11:02:24;;;;;;;24.10;13.98;;;;;;;11.53;73.63;100184.53;5051830;28;20029;-73
2022/12/15 11:04:55;;;;;;;31.92;14.57;;;;;;;11.83;74.38;100222.13;5052193;28;20118;-74
2022/12/15 11:07:21;;;;;;;33.22;15.45;;;;;;;11.81;73.46;100193.63;5052127;28;20038;-74
2022/12/15 11:09:48;;;;;;;50.13;20.30;;;;;;;12.24;73.71;100230.88;5050408;28;20507;-75
2022/12/15 11:15:30;;;;;;;20.45;12.05;;;;;;;12.71;71.67;100243.38;5054084;28;20108;-75
2022/12/15 11:18:06;;;;;;;17.58;10.07;;;;;;;12.73;70.43;100241.38;5013732;28;20421;-74
2022/12/15 11:20:36;;;;;;;17.38;9.23;;;;;;;12.76;69.45;100257.25;5029037;28;20088;-75
2022/12/15 11:23:10;;;;;;;25.13;11.18;;;;;;;12.87;69.48;100253.53;5029163;28;20460;-74
2022/12/15 11:25:41;;;;;;;25.20;10.80;;;;;;;12.90;68.57;100247.84;5029074;28;20036;-74
2022/12/15 11:28:17;;;;;;;33.53;13.38;;;;;;;12.95;68.14;100265.28;5029275;28;20053;-74
2022/12/15 11:30:53;;;;;;;19.30;9.52;;;;;;;12.99;68.46;100269.41;5029025;28;20496;-75
2022/12/15 11:33:18;;;;;;;19.08;9.93;;;;;;;13.00;68.90;100281.88;5028917;28;20049;-74
2022/12/15 11:36:09;;;;;;;19.38;8.93;;;;;;;13.06;69.04;100275.88;5028697;28;20037;-74
2022/12/15 11:38:44;;;;;;;17.55;8.23;;;;;;;12.99;67.63;100264.00;5028689;28;20029;-74
2022/12/15 11:41:36;;;;;;;14.00;8.25;;;;;;;12.94;68.27;100270.81;5028603;28;20127;-74
2022/12/15 11:44:28;;;;;;;27.05;11.35;;;;;;;12.91;68.40;100277.38;4931449;29;20043;-74
2022/12/15 11:46:56;;;;;;;;;;;;;;;12.86;67.99;100278.81;4932002;29;20039;-75
2022/12/15 11:49:39;;;;;;;17.38;9.10;;;;;;;12.87;68.23;100281.34;4931212;29;19926;-74
2022/12/15 11:52:15;;;;;;;24.75;11.40;;;;;;;12.85;67.40;100288.75;4931476;29;20031;-73
2022/12/15 11:54:54;;;;;;;15.82;10.60;;;;;;;12.83;67.43;100279.13;4946669;28;20058;-75
2022/12/15 11:57:41;;;;;;;17.95;9.77;;;;;;;12.80;66.79;100280.28;4969926;28;20814;-75
2022/12/15 12:00:14;;;;;;;17.88;9.43;;;;;;;12.66;66.82;100288.81;4969980;28;20506;-75
2022/12/15 12:03:01;;;;;;;24.48;9.55;;;;;;;12.65;67.30;100292.53;4969948;28;20038;-74
2022/12/15 12:05:41;;;;;;;21.70;9.55;;;;;;;12.51;67.63;100295.66;4969586;28;20086;-74
2022/12/15 12:08:28;;;;;;;15.77;8.70;;;;;;;12.59;67.71;100303.91;4969763;28;20065;-76
2022/12/15 12:10:56;;;;;;;14.18;8.95;;;;;;;12.65;67.88;100297.06;4969592;28;20031;-74
2022/12/15 12:13:46;;;;;;;25.48;9.65;;;;;;;12.66;67.22;100298.78;4969551;28;20038;-74
2022/12/15 12:16:38;;;;;;;23.67;10.00;;;;;;;12.70;67.31;100300.16;4971061;28;20030;-75
2022/12/15 12:19:42;;;;;;;14.35;8.20;;;;;;;12.62;66.69;100314.41;4972578;28;20026;-74
2022/12/15 12:22:41;;;;;;;15.82;8.95;;;;;;;12.42;67.64;100329.75;5006206;28;20044;-74
2022/12/15 12:25:19;;;;;;;17.08;8.48;;;;;;;12.49;67.67;100319.25;5008442;28;20032;-74
2022/12/15 12:28:03;;;;;;;22.38;8.70;;;;;;;12.40;67.21;100315.56;5008121;28;20034;-76
2022/12/15 12:30:40;;;;;;;15.05;8.10;;;;;;;12.33;67.99;100309.03;5007531;28;20129;-75
2022/12/15 12:33:12;;;;;;;22.48;8.85;;;;;;;12.34;67.87;100309.91;5008208;28;20053;-76
2022/12/15 12:35:59;;;;;;;20.02;8.75;;;;;;;12.39;68.89;100315.72;4991958;28;20136;-73
2022/12/15 12:38:39;;;;;;;17.70;9.85;;;;;;;12.26;69.25;100293.59;5008121;28;20037;-75
2022/12/15 12:41:07;;;;;;;17.75;9.05;;;;;;;12.44;69.07;100330.50;4975482;28;20029;-75
2022/12/15 12:43:38;;;;;;;27.88;8.18;;;;;;;12.36;68.63;100314.16;4991611;28;20560;-74
2022/12/15 12:46:16;;;;;;;16.52;9.85;;;;;;;12.35;68.80;100322.41;5007944;28;20112;-76
2022/12/15 12:48:59;;;;;;;22.52;9.65;;;;;;;12.38;69.48;100322.94;5007552;28;20152;-75
2022/12/15 12:51:32;;;;;;;13.45;9.57;;;;;;;12.37;69.26;100341.97;5007610;28;20038;-75
2022/12/15 12:53:59;;;;;;;17.65;9.15;;;;;;;12.30;68.87;100352.47;5007976;28;20037;-74
2022/12/15 12:56:36;;;;;;;17.10;8.45;;;;;;;12.25;69.14;100359.31;5007763;28;20030;-76
2022/12/15 12:59:08;;;;;;;15.35;8.35;;;;;;;12.15;68.91;100351.22;5037860;28;20033;-76
2022/12/15 13:01:36;;;;;;;12.90;9.80;;;;;;;12.10;69.15;100363.41;5049894;28;20043;-76
2022/12/15 13:04:27;;;;;;;10.52;8.13;;;;;;;12.05;69.78;100368.38;5050115;28;20442;-74
2022/12/15 13:06:57;;;;;;;23.67;9.40;;;;;;;11.90;69.18;100355.28;5049611;28;20017;-75
2022/12/15 13:09:36;;;;;;;19.55;9.05;;;;;;;11.71;69.30;100328.31;5049733;28;20121;-74
2022/12/15 13:12:02;;;;;;;16.23;8.40;;;;;;;11.85;69.38;100367.50;5049913;28;20025;-74
2022/12/15 13:14:39;;;;;;;10.60;7.40;;;;;;;11.82;69.80;100376.72;5049577;28;20376;-75
2022/12/15 13:17:20;;;;;;;21.73;9.20;;;;;;;11.79;69.83;100373.44;5049539;28;20412;-75
2022/12/15 13:19:55;;;;;;;13.93;8.13;;;;;;;11.51;70.20;100344.56;5049844;28;20032;-74
2022/12/15 13:22:31;;;;;;;13.18;8.80;;;;;;;11.78;70.49;100395.97;5049860;28;20033;-77
2022/12/15 13:24:57;;;;;;;21.63;9.30;;;;;;;11.72;70.24;100394.69;5051262;28;20021;-75
2022/12/15 13:27:23;;;;;;;19.17;9.93;;;;;;;11.67;70.27;100404.16;5052962;28;20079;-75
2022/12/15 13:30:18;;;;;;;24.20;9.15;;;;;;;11.68;70.46;100406.69;5052450;28;20025;-75
2022/12/15 13:32:50;;;;;;;22.00;8.43;;;;;;;11.67;70.95;100410.38;5049232;28;20717;-73
2022/12/15 13:35:23;;;;;;;21.58;8.77;;;;;;;11.65;70.58;100425.81;5049387;28;20028;-75
2022/12/15 13:37:51;;;;;;;25.35;10.40;;;;;;;11.70;70.59;100418.22;5049168;28;20476;-75
2022/12/15 13:40:33;;;;;;;15.02;9.45;;;;;;;11.62;70.69;100404.53;5048830;28;20444;-77
2022/12/15 13:43:05;;;;;;;20.95;9.90;;;;;;;11.55;70.78;100419.56;5049174;28;20029;-75
2022/12/15 13:45:36;;;;;;;20.15;9.98;;;;;;;11.51;70.96;100425.34;5047896;28;20459;-75
2022/12/15 13:48:13;;;;;;;26.03;9.93;;;;;;;11.44;71.67;100428.56;5049312;28;20060;-75